Time;durP1;ratioP1;P1;durP2;ratioP2;P2;SDS_P1;SDS_P2;PMS_P1;PMS_P2;Temp;Humidity;BMP_temperature;BMP_pressure;BME280_temperature;BME280_humidity;BME280_pressure;Samples;Min_cycle;Max_cycle;Signal;HPM_P1;HPM_P2
2021/08/15 00:00:09;;;;;;;;;;;;;;;21.30;68.61;97075.72;30001;982;1880;-62
2021/08/15 00:00:40;;;;;;;;;;;;;;;21.29;68.38;97074.13;30001;982;1885;-63
2021/08/15 00:01:12;;;;;;;;;;;;;;;21.30;68.68;97069.41;30001;987;1880;-64
2021/08/15 00:01:43;;;;;;;;;;;;;;;21.29;68.68;97071.34;30001;982;1885;-62
2021/08/15 00:02:14;;;;;;;;;;;;;;;21.28;68.41;97072.53;30001;982;1881;-63
2021/08/15 00:02:46;;;;;;;;;;;;;;;21.28;68.40;97072.53;30001;983;1884;-63
2021/08/15 00:03:17;;;;;;;;;;;;;;;21.27;68.62;97070.12;30001;983;1862;-63
2021/08/15 00:03:50;;;;;;;;;;;;;;;21.26;68.15;97069.31;30001;983;1880;-62
2021/08/15 00:04:21;;;;;;;;;;;;;;;21.27;68.06;97068.16;30001;983;1880;-62
2021/08/15 00:04:52;;;;;;;;;;;;;;;21.27;68.27;97070.12;30001;983;1867;-62
2021/08/15 00:05:23;;;;;;;;;;;;;;;21.27;68.07;97075.63;30001;986;1876;-63
2021/08/15 00:05:54;;;;;;;;;;;;;;;21.26;68.00;97069.31;30001;983;1867;-63
2021/08/15 00:06:25;;;;;;;;;;;;;;;21.26;68.49;97072.06;30001;983;1876;-62
2021/08/15 00:06:55;;;;;;;;;;;;;;;21.25;68.33;97073.22;30001;962;1787;-63
2021/08/15 00:07:26;;;;;;;;;;;;;;;21.25;68.06;97073.22;30001;982;1876;-64
2021/08/15 00:07:57;;;;;;;;;;;;;;;21.24;68.31;97066.09;30001;982;1885;-63
2021/08/15 00:08:28;;;;;;;;;;;;;;;21.24;68.27;97074.37;30001;982;1880;-63
2021/08/15 00:08:59;;;;;;;;;;;;;;;21.23;68.35;97064.50;30001;982;1885;-62
2021/08/15 00:09:30;;;;;;;;;;;;;;;21.22;68.34;97071.19;30001;982;1880;-62
2021/08/15 00:10:00;;;;;;;;;;;;;;;21.23;68.51;97067.25;30001;982;1885;-62
2021/08/15 00:10:31;;;;;;;;;;;;;;;21.22;68.23;97068.41;30001;982;1890;-56
2021/08/15 00:11:02;;;;;;;;;;;;;;;21.23;68.25;97064.50;30001;983;1884;-63
2021/08/15 00:11:33;;;;;;;;;;;;;;;21.23;68.15;97061.75;30001;983;1862;-63
2021/08/15 00:12:06;;;;;;;;;;;;;;;21.24;67.93;97055.06;30001;983;1880;-62
2021/08/15 00:12:37;;;;;;;;;;;;;;;21.24;67.93;97060.59;30001;983;1880;-63
2021/08/15 00:13:09;;;;;;;;;;;;;;;21.26;67.83;97058.28;30001;983;1884;-63
2021/08/15 00:13:40;;;;;;;;;;;;;;;21.27;67.78;97059.06;30001;983;1880;-62
2021/08/15 00:14:11;;;;;;;;;;;;;;;21.27;67.63;97054.34;30001;983;1884;-63
2021/08/15 00:14:42;;;;;;;;;;;;;;;21.28;67.37;97052.41;30001;982;1880;-64
2021/08/15 00:15:14;;;;;;;;;;;;;;;21.28;67.71;97055.97;30001;982;1885;-63
2021/08/15 00:15:45;;;;;;;;;;;;;;;21.28;67.51;97050.44;30001;982;1880;-64
2021/08/15 00:16:16;;;;;;;;;;;;;;;21.29;67.53;97052.03;30001;982;1885;-62
2021/08/15 00:16:47;;;;;;;;;;;;;;;21.30;67.52;97048.12;30001;982;1862;-64
2021/08/15 00:17:17;;;;;;;;;;;;;;;21.30;67.33;97047.31;30001;983;1879;-63
2021/08/15 00:17:49;;;;;;;;;;;;;;;21.30;67.27;97053.63;30001;983;1880;-62
2021/08/15 00:18:21;;;;;;;;;;;;;;;21.31;67.19;97044.19;30001;983;1884;-62
2021/08/15 00:18:55;;;;;;;;;;;;;;;21.31;67.31;97046.16;30001;983;1785;-64
2021/08/15 00:19:28;;;;;;;;;;;;;;;21.32;67.10;97045.00;30001;983;1884;-62
2021/08/15 00:19:58;;;;;;;;;;;;;;;21.31;67.21;97046.97;30001;983;1880;-63
2021/08/15 00:20:29;;;;;;;;;;;;;;;21.33;67.10;97050.16;30001;983;1884;-63
2021/08/15 00:21:00;;;;;;;;;;;;;;;21.31;66.99;97052.47;30001;983;1880;-63
2021/08/15 00:21:32;;;;;;;;;;;;;;;21.31;67.30;97049.72;30001;983;1885;-64
2021/08/15 00:22:03;;;;;;;;;;;;;;;21.30;67.30;97053.63;30001;982;1863;-56
2021/08/15 00:22:36;;;;;;;;;;;;;;;21.30;67.19;97059.16;30001;982;1880;-63
2021/08/15 00:23:07;;;;;;;;;;;;;;;21.29;67.69;97049.28;30001;982;1880;-63
2021/08/15 00:23:40;;;;;;;;;;;;;;;21.28;67.53;97053.19;30001;982;1884;-63
2021/08/15 00:24:10;;;;;;;;;;;;;;;21.28;67.60;97050.44;30001;982;1881;-63
2021/08/15 00:24:41;;;;;;;;;;;;;;;21.27;67.76;97054.34;30001;983;1884;-63
2021/08/15 00:25:14;;;;;;;;;;;;;;;21.26;67.70;97047.22;30001;983;1880;-61
2021/08/15 00:25:45;;;;;;;;;;;;;;;21.26;67.78;97047.22;30001;983;1884;-64
2021/08/15 00:26:16;;;;;;;;;;;;;;;21.26;67.58;97046.44;30001;983;1880;-62
2021/08/15 00:26:47;;;;;;;;;;;;;;;21.25;67.55;97051.16;30001;983;1867;-63
2021/08/15 00:27:18;;;;;;;;;;;;;;;21.24;67.67;97048.75;30001;983;1875;-64
2021/08/15 00:27:49;;;;;;;;;;;;;;;21.23;67.67;97047.94;30001;983;1884;-63
2021/08/15 00:28:20;;;;;;;;;;;;;;;21.22;67.49;97043.59;30001;983;1880;-63
2021/08/15 00:28:51;;;;;;;;;;;;;;;21.21;67.67;97050.25;30001;983;1885;-62
2021/08/15 00:29:22;;;;;;;;;;;;;;;21.20;67.76;97050.59;30001;983;1881;-62
2021/08/15 00:29:53;;;;;;;;;;;;;;;21.19;67.75;97049.00;30001;982;1885;-62
2021/08/15 00:30:27;;;;;;;;;;;;;;;21.18;67.79;97050.16;30001;982;1880;-63
2021/08/15 00:30:58;;;;;;;;;;;;;;;21.17;67.94;97046.59;30001;957;1910;-62
2021/08/15 00:31:29;;;;;;;;;;;;;;;21.15;68.02;97040.62;30001;982;1881;-62
2021/08/15 00:32:08;;;;;;;;;;;;;;;21.14;68.07;97047.28;30001;983;1867;-63
2021/08/15 00:32:38;;;;;;;;;;;;;;;21.13;67.92;97042.16;30001;983;1875;-63
2021/08/15 00:33:09;;;;;;;;;;;;;;;21.11;68.20;97048.03;30001;983;1884;-63
2021/08/15 00:33:40;;;;;;;;;;;;;;;21.09;68.21;97047.59;30001;983;1880;-63
2021/08/15 00:34:11;;;;;;;;;;;;;;;21.08;67.97;97041.28;30001;983;1884;-63
2021/08/15 00:34:42;;;;;;;;;;;;;;;21.08;68.22;97043.22;30001;983;1880;-63
2021/08/15 00:35:13;;;;;;;;;;;;;;;21.07;68.25;97038.88;30001;983;1867;-61
2021/08/15 00:35:44;;;;;;;;;;;;;;;21.05;68.31;97039.22;30001;983;1875;-63
2021/08/15 00:36:15;;;;;;;;;;;;;;;21.05;68.39;97041.19;30001;983;1885;-63
2021/08/15 00:36:46;;;;;;;;;;;;;;;21.04;68.40;97039.59;30001;983;1880;-63
2021/08/15 00:37:17;;;;;;;;;;;;;;;21.02;68.12;97034.41;30001;982;1867;-62
2021/08/15 00:37:48;;;;;;;;;;;;;;;21.02;68.29;97042.69;30001;982;1876;-63
2021/08/15 00:38:18;;;;;;;;;;;;;;;21.02;68.21;97039.13;30001;982;1867;-63
2021/08/15 00:38:49;;;;;;;;;;;;;;;21.00;68.19;97041.44;30001;982;1776;-62
2021/08/15 00:39:21;;;;;;;;;;;;;;;20.99;68.42;97037.91;30001;982;1885;-63
2021/08/15 00:39:52;;;;;;;;;;;;;;;20.98;68.47;97041.00;30001;987;1871;-63
2021/08/15 00:40:24;;;;;;;;;;;;;;;20.97;68.38;97033.88;30001;983;1885;-63
2021/08/15 00:40:54;;;;;;;;;;;;;;;20.97;68.24;97036.66;30001;983;1880;-63
2021/08/15 00:41:25;;;;;;;;;;;;;;;20.96;68.71;97035.03;30001;983;1884;-62
2021/08/15 00:41:57;;;;;;;;;;;;;;;20.95;68.43;97031.47;30001;983;1880;-63
2021/08/15 00:42:28;;;;;;;;;;;;;;;20.95;68.56;97033.44;30001;983;1867;-63
2021/08/15 00:42:59;;;;;;;;;;;;;;;20.94;68.52;97040.91;30001;983;1876;-62
2021/08/15 00:43:32;;;;;;;;;;;;;;;20.93;68.53;97038.50;30001;983;1884;-62
2021/08/15 00:44:03;;;;;;;;;;;;;;;20.92;68.84;97039.66;30001;982;1880;-58
2021/08/15 00:44:34;;;;;;;;;;;;;;;20.91;68.98;97036.09;30001;982;1885;-63
2021/08/15 00:45:06;;;;;;;;;;;;;;;20.90;69.11;97039.22;30001;982;1880;-62
2021/08/15 00:45:36;;;;;;;;;;;;;;;20.89;69.14;97037.63;30001;982;1867;-63
2021/08/15 00:46:11;;;;;;;;;;;;;;;20.87;69.30;97042.69;30001;982;1876;-63
2021/08/15 00:46:43;;;;;;;;;;;;;;;20.85;69.26;97031.22;30001;982;1885;-63
2021/08/15 00:47:14;;;;;;;;;;;;;;;20.85;69.45;97025.69;30001;983;1880;-63
2021/08/15 00:47:45;;;;;;;;;;;;;;;20.84;69.20;97035.13;30001;983;1884;-63
2021/08/15 00:48:16;;;;;;;;;;;;;;;20.82;69.27;97029.16;30001;983;1880;-63
2021/08/15 00:48:47;;;;;;;;;;;;;;;20.82;69.53;97037.44;30001;983;1867;-63
2021/08/15 00:49:19;;;;;;;;;;;;;;;20.81;69.47;97031.13;30001;983;1875;-63
2021/08/15 00:49:50;;;;;;;;;;;;;;;20.81;69.38;97030.31;30001;986;1884;-63
2021/08/15 00:50:20;;;;;;;;;;;;;;;20.80;69.38;97029.50;30001;983;1880;-63
2021/08/15 00:50:51;;;;;;;;;;;;;;;20.82;69.59;97031.91;30001;983;1885;-64
2021/08/15 00:51:22;;;;;;;;;;;;;;;20.81;69.39;97024.81;30001;982;1880;-63
2021/08/15 00:51:53;;;;;;;;;;;;;;;20.82;69.27;97026.41;30001;982;1885;-64
2021/08/15 00:52:24;;;;;;;;;;;;;;;20.83;69.07;97028.00;30001;982;1880;-63
2021/08/15 00:52:55;;;;;;;;;;;;;;;20.83;69.31;97025.25;30001;982;1885;-63
2021/08/15 00:53:26;;;;;;;;;;;;;;;20.84;68.83;97024.09;30001;982;1880;-64
2021/08/15 00:53:58;;;;;;;;;;;;;;;20.84;69.10;97026.84;30001;982;1868;-63
2021/08/15 00:54:29;;;;;;;;;;;;;;;20.85;68.80;97025.69;30001;982;1876;-64
2021/08/15 00:55:01;;;;;;;;;;;;;;;20.84;68.89;97029.59;30001;983;1884;-63
2021/08/15 00:55:33;;;;;;;;;;;;;;;20.84;68.80;97024.91;30001;983;1862;-63
2021/08/15 00:56:04;;;;;;;;;;;;;;;20.85;68.77;97020.19;30001;983;1880;-63
2021/08/15 00:56:35;;;;;;;;;;;;;;;20.83;69.04;97022.50;30001;983;1880;-63
2021/08/15 00:57:06;;;;;;;;;;;;;;;20.84;68.79;97024.09;30001;983;1867;-63
2021/08/15 00:57:39;;;;;;;;;;;;;;;20.84;69.02;97024.91;30001;983;1875;-63
2021/08/15 00:58:10;;;;;;;;;;;;;;;20.83;68.86;97016.97;30001;983;1867;-64
2021/08/15 00:58:41;;;;;;;;;;;;;;;20.83;69.02;97022.50;30001;983;1876;-57
2021/08/15 00:59:12;;;;;;;;;;;;;;;20.83;68.94;97022.50;30001;982;1885;-63
2021/08/15 00:59:43;;;;;;;;;;;;;;;20.83;68.93;97016.97;30001;982;1880;-62
2021/08/15 01:00:16;;;;;;;;;;;;;;;20.83;68.93;97022.50;30001;982;1885;-62
2021/08/15 01:00:47;;;;;;;;;;;;;;;20.81;68.76;97020.09;30001;982;1881;-62
2021/08/15 01:01:21;;;;;;;;;;;;;;;20.82;68.92;97020.87;30001;983;1884;-62
2021/08/15 01:01:53;;;;;;;;;;;;;;;20.82;68.61;97020.87;30001;983;1880;-62
2021/08/15 01:02:24;;;;;;;;;;;;;;;20.83;68.98;97016.97;30001;983;1867;-62
2021/08/15 01:02:55;;;;;;;;;;;;;;;20.83;68.94;97019.72;30001;983;1875;-62
2021/08/15 01:03:26;;;;;;;;;;;;;;;20.83;69.13;97016.97;30001;983;1884;-62
2021/08/15 01:03:56;;;;;;;;;;;;;;;20.84;68.89;97021.34;30001;983;1880;-61
2021/08/15 01:04:27;;;;;;;;;;;;;;;20.84;69.19;97018.56;30001;983;1884;-63
2021/08/15 01:04:59;;;;;;;;;;;;;;;20.84;68.79;97015.81;30001;983;1880;-63
2021/08/15 01:05:31;;;;;;;;;;;;;;;20.85;69.04;97014.66;30001;983;1884;-63
2021/08/15 01:06:02;;;;;;;;;;;;;;;20.84;69.03;97013.87;30001;983;1880;-62
2021/08/15 01:06:34;;;;;;;;;;;;;;;20.84;69.05;97013.06;30001;982;1885;-62
2021/08/15 01:07:05;;;;;;;;;;;;;;;20.85;69.06;97014.66;30001;982;1880;-64
2021/08/15 01:07:37;;;;;;;;;;;;;;;20.83;68.99;97016.97;30001;982;1867;-62
2021/08/15 01:08:08;;;;;;;;;;;;;;;20.82;69.12;97009.84;30001;982;1876;-62
2021/08/15 01:08:39;;;;;;;;;;;;;;;20.79;69.03;97010.59;30001;982;1885;-64
2021/08/15 01:09:10;;;;;;;;;;;;;;;20.78;69.24;97017.28;30001;983;1880;-63
2021/08/15 01:09:41;;;;;;;;;;;;;;;20.78;69.28;97009.00;30001;983;1885;-63
2021/08/15 01:10:13;;;;;;;;;;;;;;;20.76;69.27;97016.81;30001;983;1880;-63
2021/08/15 01:10:44;;;;;;;;;;;;;;;20.74;69.16;97012.47;30001;983;1884;-63
2021/08/15 01:11:15;;;;;;;;;;;;;;;20.73;69.24;97013.63;30001;983;1880;-63
2021/08/15 01:11:46;;;;;;;;;;;;;;;20.73;69.36;97013.63;30001;983;1867;-63
2021/08/15 01:12:17;;;;;;;;;;;;;;;20.73;69.15;97008.09;30001;983;1876;-61
2021/08/15 01:12:49;;;;;;;;;;;;;;;20.72;69.61;97006.50;30001;983;1884;-63
2021/08/15 01:13:21;;;;;;;;;;;;;;;20.72;69.38;97006.50;30001;983;1880;-61
2021/08/15 01:13:52;;;;;;;;;;;;;;;20.72;69.54;97012.03;30001;982;1885;-63
2021/08/15 01:14:23;;;;;;;;;;;;;;;20.71;69.40;97004.91;30001;982;1863;-64
2021/08/15 01:14:56;;;;;;;;;;;;;;;20.72;69.42;97011.22;30001;985;1880;-62
2021/08/15 01:15:27;;;;;;;;;;;;;;;20.71;69.44;97004.91;30001;982;1880;-63
2021/08/15 01:15:59;;;;;;;;;;;;;;;20.70;69.33;97003.28;30001;982;1885;-62
2021/08/15 01:16:30;;;;;;;;;;;;;;;20.70;69.16;97003.28;30001;983;1880;-62
2021/08/15 01:17:01;;;;;;;;;;;;;;;20.69;69.35;97001.69;30001;983;1846;-60
2021/08/15 01:17:32;;;;;;;;;;;;;;;20.69;69.42;97004.47;30001;983;1880;-62
2021/08/15 01:18:22;;;;;;;;;;;;;;;20.69;69.25;97007.22;30001;983;1884;-61
2021/08/15 01:18:54;;;;;;;;;;;;;;;20.69;69.25;96998.94;30001;983;1880;-62
2021/08/15 01:19:29;;;;;;;;;;;;;;;20.69;69.02;97007.22;30001;983;1867;-64
2021/08/15 01:20:00;;;;;;;;;;;;;;;20.69;68.94;97001.69;30001;983;1876;-61
2021/08/15 01:20:31;;;;;;;;;;;;;;;20.69;69.22;97001.69;30001;983;1884;-62
2021/08/15 01:21:03;;;;;;;;;;;;;;;20.70;69.18;97000.53;30001;983;1880;-62
2021/08/15 01:21:34;;;;;;;;;;;;;;;20.68;69.18;96997.34;30001;982;1885;-62
2021/08/15 01:22:05;;;;;;;;;;;;;;;20.69;69.11;96996.19;30001;982;1863;-61
2021/08/15 01:22:42;;;;;;;;;;;;;;;20.70;69.26;96999.75;30001;982;1880;-63
2021/08/15 01:23:13;;;;;;;;;;;;;;;20.70;69.03;96997.78;30001;982;1880;-63
2021/08/15 01:23:45;;;;;;;;;;;;;;;20.70;69.26;96997.78;30001;982;1885;-62
2021/08/15 01:24:15;;;;;;;;;;;;;;;20.70;69.35;96997.78;30001;983;1880;-63
2021/08/15 01:24:47;;;;;;;;;;;;;;;20.69;69.41;96998.94;30001;983;1884;-62
2021/08/15 01:25:18;;;;;;;;;;;;;;;20.68;69.25;96994.59;30001;983;1880;-63
2021/08/15 01:25:48;;;;;;;;;;;;;;;20.68;69.48;97000.09;30001;983;1884;-62
2021/08/15 01:26:21;;;;;;;;;;;;;;;20.68;69.58;96994.59;30001;983;1880;-63
2021/08/15 01:26:53;;;;;;;;;;;;;;;20.68;69.69;96989.06;30001;965;1782;-63
2021/08/15 01:27:25;;;;;;;;;;;;;;;20.69;69.72;96998.13;30001;983;1875;-62
2021/08/15 01:27:56;;;;;;;;;;;;;;;20.67;69.78;96992.19;30001;983;1884;-62
2021/08/15 01:28:28;;;;;;;;;;;;;;;20.66;70.03;96990.56;30001;982;1863;-62
2021/08/15 01:28:59;;;;;;;;;;;;;;;20.66;69.82;96991.37;30001;982;1880;-62
2021/08/15 01:29:34;;;;;;;;;;;;;;;20.66;69.80;96988.63;30001;982;1881;-62
2021/08/15 01:30:06;;;;;;;;;;;;;;;20.67;69.78;96987.47;30001;982;1885;-61
2021/08/15 01:30:37;;;;;;;;;;;;;;;20.66;69.95;96991.37;30001;982;1880;-62
2021/08/15 01:31:09;;;;;;;;;;;;;;;20.65;69.98;96989.78;30001;982;1867;-63
2021/08/15 01:31:40;;;;;;;;;;;;;;;20.65;70.28;96984.25;30001;983;1875;-62
2021/08/15 01:32:15;;;;;;;;;;;;;;;20.67;70.18;96987.47;30001;983;1884;-62
2021/08/15 01:32:46;;;;;;;;;;;;;;;20.66;70.45;96985.06;30001;983;1880;-63
2021/08/15 01:33:42;;;;;;;;;;;;;;;20.68;70.31;96993.78;30001;983;1884;-61
2021/08/15 01:34:13;;;;;;;;;;;;;;;20.68;70.33;96989.06;30001;983;1875;-62
2021/08/15 01:34:45;;;;;;;;;;;;;;;20.67;70.14;96992.97;30001;981;1867;-62
2021/08/15 01:35:16;;;;;;;;;;;;;;;20.67;70.38;96989.41;30001;976;1882;-61
2021/08/15 01:35:47;;;;;;;;;;;;;;;20.66;70.84;96991.37;30001;982;1884;-62
2021/08/15 01:36:19;;;;;;;;;;;;;;;20.65;70.87;96988.97;30001;982;1880;-62
2021/08/15 01:36:50;;;;;;;;;;;;;;;20.64;71.00;96993.69;30001;982;1885;-63
2021/08/15 01:37:24;;;;;;;;;;;;;;;20.63;71.09;96989.31;30001;982;1880;-62
2021/08/15 01:37:55;;;;;;;;;;;;;;;20.63;71.04;96991.28;30001;982;1867;-63
2021/08/15 01:38:27;;;;;;;;;;;;;;;20.61;71.18;96991.63;30001;982;1876;-62
2021/08/15 01:38:58;;;;;;;;;;;;;;;20.61;71.36;96994.41;30001;982;1885;-62
2021/08/15 01:39:29;;;;;;;;;;;;;;;20.60;70.99;96990.03;30001;983;1880;-63
2021/08/15 01:40:02;;;;;;;;;;;;;;;20.60;70.96;96992.78;30001;983;1884;-61
2021/08/15 01:40:33;;;;;;;;;;;;;;;20.58;70.85;96989.59;30001;983;1880;-61
2021/08/15 01:41:05;;;;;;;;;;;;;;;20.58;70.78;96986.84;30001;983;1884;-63
2021/08/15 01:41:36;;;;;;;;;;;;;;;20.57;71.06;96987.19;30001;983;1880;-63
2021/08/15 01:42:08;;;;;;;;;;;;;;;20.57;70.84;96987.19;30001;983;1885;-62
2021/08/15 01:42:39;;;;;;;;;;;;;;;20.56;70.88;96989.16;30001;983;1880;-64
2021/08/15 01:43:10;;;;;;;;;;;;;;;20.55;70.78;96982.03;30001;983;1867;-62
2021/08/15 01:43:54;;;;;;;;;;;;;;;20.55;70.68;96987.53;30001;982;1876;-62
2021/08/15 01:44:25;;;;;;;;;;;;;;;20.55;70.59;96987.53;30001;982;1885;-61
2021/08/15 01:44:56;;;;;;;;;;;;;;;20.55;70.73;96992.25;30001;982;1863;-62
2021/08/15 01:45:27;;;;;;;;;;;;;;;20.55;70.61;96987.53;30001;982;1880;-62
2021/08/15 01:45:58;;;;;;;;;;;;;;;20.55;70.67;96978.47;30001;982;1880;-61
2021/08/15 01:46:30;;;;;;;;;;;;;;;20.53;70.65;96981.56;30001;986;1885;-62
2021/08/15 01:47:01;;;;;;;;;;;;;;;20.54;70.66;96983.19;30001;983;1879;-61
2021/08/15 01:47:32;;;;;;;;;;;;;;;20.54;70.91;96987.91;30001;983;1884;-62
2021/08/15 01:48:04;;;;;;;;;;;;;;;20.52;70.68;96985.50;30001;983;1880;-61
2021/08/15 01:48:34;;;;;;;;;;;;;;;20.52;71.25;96991.00;30001;983;1867;-63
2021/08/15 01:49:05;;;;;;;;;;;;;;;20.51;71.00;96983.09;30001;960;1800;-62
2021/08/15 01:49:36;;;;;;;;;;;;;;;20.49;71.32;96986.19;30001;979;1897;-64
2021/08/15 01:50:07;;;;;;;;;;;;;;;20.48;71.35;96984.59;30001;983;1858;-62
2021/08/15 01:50:39;;;;;;;;;;;;;;;20.48;71.48;96983.78;30001;983;1876;-62
2021/08/15 01:51:13;;;;;;;;;;;;;;;20.48;71.54;96983.78;30001;982;1876;-62
2021/08/15 01:51:44;;;;;;;;;;;;;;;20.48;71.31;96981.84;30001;982;1880;-62
2021/08/15 01:52:15;;;;;;;;;;;;;;;20.48;71.20;96990.09;30001;982;1858;-62
2021/08/15 01:52:46;;;;;;;;;;;;;;;20.48;71.17;96983.78;30001;963;1797;-63
2021/08/15 01:53:18;;;;;;;;;;;;;;;20.49;71.16;96979.88;30001;982;1876;-63
2021/08/15 01:53:50;;;;;;;;;;;;;;;20.49;71.04;96977.94;30001;982;1881;-62
2021/08/15 01:54:21;;;;;;;;;;;;;;;20.50;71.07;96982.28;30001;983;1875;-63
2021/08/15 01:54:52;;;;;;;;;;;;;;;20.50;71.03;96987.00;30001;983;1880;-63
2021/08/15 01:55:22;;;;;;;;;;;;;;;20.50;70.91;96976.78;30001;983;1875;-63
2021/08/15 01:55:53;;;;;;;;;;;;;;;20.49;70.73;96983.44;30001;983;1862;-63
2021/08/15 01:56:24;;;;;;;;;;;;;;;20.49;70.89;96980.69;30001;963;1891;-63
2021/08/15 01:56:58;;;;;;;;;;;;;;;20.49;70.92;96982.63;30001;983;1863;-62
2021/08/15 01:57:29;;;;;;;;;;;;;;;20.50;70.91;96982.28;30001;983;1871;-62
2021/08/15 01:58:00;;;;;;;;;;;;;;;20.51;70.75;96983.09;30001;983;1880;-62
2021/08/15 01:58:31;;;;;;;;;;;;;;;20.51;70.75;96978.38;30001;982;1876;-63
2021/08/15 01:59:02;;;;;;;;;;;;;;;20.51;70.70;96977.56;30001;982;1880;-63
2021/08/15 01:59:32;;;;;;;;;;;;;;;20.50;70.87;96974.03;30001;982;1876;-62
2021/08/15 02:00:04;;;;;;;;;;;;;;;20.50;70.75;96982.28;30001;982;1881;-62
2021/08/15 02:00:36;;;;;;;;;;;;;;;20.50;70.85;96975.97;30001;982;1876;-62
2021/08/15 02:01:07;;;;;;;;;;;;;;;20.49;70.92;96972.41;30001;983;1862;-63
2021/08/15 02:01:38;;;;;;;;;;;;;;;20.47;71.84;96980.25;30001;983;1871;-62
2021/08/15 02:02:09;;;;;;;;;;;;;;;20.45;72.17;96979.78;30001;983;1880;-62
2021/08/15 02:02:43;;;;;;;;;;;;;;;20.43;72.17;96976.63;30001;983;1875;-63
2021/08/15 02:03:14;;;;;;;;;;;;;;;20.40;72.18;96978.13;30001;983;1880;-63
2021/08/15 02:03:46;;;;;;;;;;;;;;;20.39;72.17;96981.22;30001;983;1876;-62
2021/08/15 02:04:18;;;;;;;;;;;;;;;20.37;72.53;96983.50;30001;983;1880;-62
2021/08/15 02:04:49;;;;;;;;;;;;;;;20.36;72.10;96981.91;30001;983;1876;-63
2021/08/15 02:05:20;;;;;;;;;;;;;;;20.35;72.41;96981.09;30001;983;1880;-58
2021/08/15 02:05:50;;;;;;;;;;;;;;;20.33;72.14;96979.84;30001;983;1858;-63
2021/08/15 02:06:22;;;;;;;;;;;;;;;20.33;72.24;96977.09;30001;982;1876;-62
2021/08/15 02:06:52;;;;;;;;;;;;;;;20.33;71.83;96977.09;30001;982;1876;-63
2021/08/15 02:07:25;;;;;;;;;;;;;;;20.32;71.92;96981.00;30001;982;1863;-62
2021/08/15 02:07:57;;;;;;;;;;;;;;;20.31;72.16;96982.16;30001;982;1872;-63
2021/08/15 02:08:28;;;;;;;;;;;;;;;20.31;72.17;96976.66;30001;983;1880;-62
2021/08/15 02:08:59;;;;;;;;;;;;;;;20.30;71.89;96983.31;30001;986;1867;-62
2021/08/15 02:09:30;;;;;;;;;;;;;;;20.29;72.02;96978.97;30001;983;1880;-63
2021/08/15 02:10:03;;;;;;;;;;;;;;;20.29;71.80;96977.00;30001;983;1876;-62
2021/08/15 02:10:34;;;;;;;;;;;;;;;20.29;71.99;96990.78;30001;983;1880;-63
2021/08/15 02:11:05;;;;;;;;;;;;;;;20.28;72.06;96980.13;30001;983;1875;-63
2021/08/15 02:11:36;;;;;;;;;;;;;;;20.28;72.07;96985.63;30001;983;1880;-62
2021/08/15 02:12:07;;;;;;;;;;;;;;;20.26;71.97;96983.22;30001;983;1858;-62
2021/08/15 02:12:38;;;;;;;;;;;;;;;20.26;72.20;96977.72;30001;983;1876;-64
2021/08/15 02:13:09;;;;;;;;;;;;;;;20.26;72.19;96977.72;30001;971;1895;-63
2021/08/15 02:13:40;;;;;;;;;;;;;;;20.25;72.31;96981.63;30001;982;1880;-63
2021/08/15 02:14:11;;;;;;;;;;;;;;;20.26;71.98;96990.69;30001;982;1876;-62
2021/08/15 02:14:42;;;;;;;;;;;;;;;20.25;72.23;96980.81;30001;982;1863;-62
2021/08/15 02:15:13;;;;;;;;;;;;;;;20.24;72.29;96973.72;30001;971;1883;-63
2021/08/15 02:15:44;;;;;;;;;;;;;;;20.23;72.32;96981.16;30001;982;1880;-62
2021/08/15 02:16:15;;;;;;;;;;;;;;;20.25;72.11;96975.31;30001;983;1875;-63
2021/08/15 02:16:46;;;;;;;;;;;;;;;20.25;72.28;96976.09;30001;983;1880;-62
2021/08/15 02:17:16;;;;;;;;;;;;;;;20.26;72.15;96972.19;30001;983;1875;-62
2021/08/15 02:17:47;;;;;;;;;;;;;;;20.27;72.20;96973.81;30001;983;1880;-63
2021/08/15 02:18:19;;;;;;;;;;;;;;;20.28;72.24;96967.13;30001;983;1876;-63
2021/08/15 02:18:50;;;;;;;;;;;;;;;20.28;72.29;96971.84;30001;983;1880;-62
2021/08/15 02:19:21;;;;;;;;;;;;;;;20.28;72.04;96971.84;30001;983;1876;-62
2021/08/15 02:19:52;;;;;;;;;;;;;;;20.27;71.98;96973.81;30001;983;1863;-63
2021/08/15 02:20:23;;;;;;;;;;;;;;;20.27;72.08;96968.28;30001;983;1871;-62
2021/08/15 02:20:54;;;;;;;;;;;;;;;20.27;71.87;96978.50;30001;983;1880;-61
2021/08/15 02:21:24;;;;;;;;;;;;;;;20.25;72.00;96969.78;30001;982;1876;-63
2021/08/15 02:21:55;;;;;;;;;;;;;;;20.25;72.03;96969.78;30001;982;1880;-62
2021/08/15 02:22:26;;;;;;;;;;;;;;;20.25;72.03;96975.31;30001;982;1876;-62
2021/08/15 02:22:57;;;;;;;;;;;;;;;20.23;72.09;96978.41;30001;962;1900;-64
2021/08/15 02:23:29;;;;;;;;;;;;;;;20.23;72.37;96980.38;30001;982;1877;-63
2021/08/15 02:23:59;;;;;;;;;;;;;;;20.21;72.55;96979.91;30001;983;1862;-61
2021/08/15 02:24:30;;;;;;;;;;;;;;;20.20;72.84;96978.31;30001;983;1871;-62
2021/08/15 02:25:04;;;;;;;;;;;;;;;20.18;73.35;96983.37;30001;986;1862;-63
2021/08/15 02:25:36;;;;;;;;;;;;;;;20.15;73.02;96982.13;30001;983;1871;-62
2021/08/15 02:26:07;;;;;;;;;;;;;;;20.14;73.17;96985.22;30001;983;1880;-62
2021/08/15 02:26:37;;;;;;;;;;;;;;;20.12;73.17;96980.06;30001;983;1875;-63
2021/08/15 02:27:08;;;;;;;;;;;;;;;20.11;73.08;96980.41;30001;983;1880;-61
2021/08/15 02:27:40;;;;;;;;;;;;;;;20.11;73.10;96980.41;30001;974;1894;-62
2021/08/15 02:28:11;;;;;;;;;;;;;;;20.11;73.17;96980.41;30001;961;1901;-62
2021/08/15 02:28:42;;;;;;;;;;;;;;;20.10;73.16;96987.12;30001;982;1859;-62
2021/08/15 02:29:13;;;;;;;;;;;;;;;20.10;73.21;96979.62;30001;982;1876;-62
2021/08/15 02:29:43;;;;;;;;;;;;;;;20.08;73.17;96982.75;30001;982;1876;-63
2021/08/15 02:30:15;;;;;;;;;;;;;;;20.08;73.29;96981.97;30001;982;1880;-62
2021/08/15 02:30:46;;;;;;;;;;;;;;;20.07;73.30;96978.41;30001;982;1876;-62
2021/08/15 02:31:17;;;;;;;;;;;;;;;20.07;72.94;96986.66;30001;983;1880;-61
2021/08/15 02:31:48;;;;;;;;;;;;;;;20.07;73.17;96980.34;30001;983;1875;-63
2021/08/15 02:32:19;;;;;;;;;;;;;;;20.05;73.30;96980.72;30001;986;1880;-62
2021/08/15 02:32:50;;;;;;;;;;;;;;;20.05;73.12;96982.66;30001;983;1876;-63
2021/08/15 02:33:21;;;;;;;;;;;;;;;20.05;73.16;96982.66;30001;983;1880;-63
2021/08/15 02:33:52;;;;;;;;;;;;;;;20.05;73.34;96985.41;30001;983;1858;-61
2021/08/15 02:34:25;;;;;;;;;;;;;;;20.03;73.22;96980.25;30001;983;1876;-63
2021/08/15 02:34:55;;;;;;;;;;;;;;;20.04;73.12;96981.84;30001;983;1876;-62
2021/08/15 02:35:31;;;;;;;;;;;;;;;20.03;73.42;96982.22;30001;982;1880;-63
2021/08/15 02:36:02;;;;;;;;;;;;;;;20.02;73.24;96975.09;30001;982;1876;-63
2021/08/15 02:36:33;;;;;;;;;;;;;;;20.02;73.35;96980.59;30001;982;1880;-62
2021/08/15 02:37:03;;;;;;;;;;;;;;;20.02;73.36;96983.34;30001;982;1876;-62
2021/08/15 02:37:35;;;;;;;;;;;;;;;20.01;73.51;96979.81;30001;982;1880;-63
2021/08/15 02:38:06;;;;;;;;;;;;;;;20.01;73.48;96982.56;30001;982;1877;-63
2021/08/15 02:38:37;;;;;;;;;;;;;;;20.00;73.32;96980.97;30001;983;1862;-63
2021/08/15 02:39:08;;;;;;;;;;;;;;;20.00;73.36;96978.19;30001;983;1871;-63
2021/08/15 02:39:39;;;;;;;;;;;;;;;20.00;73.31;96980.16;30001;983;1862;-64
2021/08/15 02:40:11;;;;;;;;;;;;;;;19.99;73.23;96982.09;30001;983;1871;-62
2021/08/15 02:40:42;;;;;;;;;;;;;;;19.99;73.37;96993.13;30001;983;1863;-63
2021/08/15 02:41:13;;;;;;;;;;;;;;;19.99;73.52;96979.34;30001;983;1871;-62
2021/08/15 02:41:44;;;;;;;;;;;;;;;19.98;73.51;96983.25;30001;983;1880;-63
2021/08/15 02:42:14;;;;;;;;;;;;;;;19.98;73.49;96982.47;30001;983;1876;-62
2021/08/15 02:42:46;;;;;;;;;;;;;;;19.97;73.99;96981.66;30001;983;1880;-56
2021/08/15 02:43:18;;;;;;;;;;;;;;;19.96;74.00;96990.28;30001;982;1876;-63
2021/08/15 02:43:49;;;;;;;;;;;;;;;19.94;74.15;96992.56;30001;982;1863;-62
2021/08/15 02:44:19;;;;;;;;;;;;;;;19.91;74.99;96988.56;30001;982;1872;-63
2021/08/15 02:44:50;;;;;;;;;;;;;;;19.90;74.38;96988.91;30001;982;1880;-64
2021/08/15 02:45:22;;;;;;;;;;;;;;;19.89;74.41;96990.87;30001;982;1876;-63
2021/08/15 02:45:53;;;;;;;;;;;;;;;19.87;74.94;96989.59;30001;982;1863;-63
2021/08/15 02:46:24;;;;;;;;;;;;;;;19.86;74.37;96985.25;30001;983;1871;-61
2021/08/15 02:46:55;;;;;;;;;;;;;;;19.85;74.28;96989.97;30001;983;1880;-62
2021/08/15 02:47:26;;;;;;;;;;;;;;;19.84;74.43;96993.88;30001;983;1875;-62
2021/08/15 02:47:57;;;;;;;;;;;;;;;19.83;74.45;96986.75;30001;983;1880;-62
2021/08/15 02:48:30;;;;;;;;;;;;;;;19.84;74.36;96991.09;30001;983;1876;-62